sensor_id;sensor_type;location;lat;lon;timestamp;P1;durP1;ratioP1;P2;durP2;ratioP2
58896;SDS011;44677;52.378;10.400;2022-12-13T00:01:25;26.40;;;14.00;;
58896;SDS011;44677;52.378;10.400;2022-12-13T00:03:52;29.70;;;14.40;;
58896;SDS011;44677;52.378;10.400;2022-12-13T00:06:18;27.40;;;15.00;;
58896;SDS011;44677;52.378;10.400;2022-12-13T00:08:44;29.60;;;14.20;;
58896;SDS011;44677;52.378;10.400;2022-12-13T00:11:10;26.90;;;13.80;;
58896;SDS011;44677;52.378;10.400;2022-12-13T00:16:04;20.10;;;11.90;;
58896;SDS011;44677;52.378;10.400;2022-12-13T00:18:31;25.90;;;13.80;;
58896;SDS011;44677;52.378;10.400;2022-12-13T00:20:58;30.30;;;13.60;;
58896;SDS011;44677;52.378;10.400;2022-12-13T00:23:24;28.10;;;14.00;;
58896;SDS011;44677;52.378;10.400;2022-12-13T00:25:49;25.60;;;12.80;;
58896;SDS011;44677;52.378;10.400;2022-12-13T00:28:15;30.40;;;15.30;;
58896;SDS011;44677;52.378;10.400;2022-12-13T00:30:40;31.20;;;14.30;;
58896;SDS011;44677;52.378;10.400;2022-12-13T00:33:06;28.90;;;14.50;;
58896;SDS011;44677;52.378;10.400;2022-12-13T00:35:32;28.00;;;13.50;;
58896;SDS011;44677;52.378;10.400;2022-12-13T00:37:57;32.20;;;14.30;;
58896;SDS011;44677;52.378;10.400;2022-12-13T00:40:23;27.90;;;14.70;;
58896;SDS011;44677;52.378;10.400;2022-12-13T00:42:48;28.50;;;14.20;;
58896;SDS011;44677;52.378;10.400;2022-12-13T00:45:14;29.80;;;15.30;;
58896;SDS011;44677;52.378;10.400;2022-12-13T00:47:39;29.00;;;14.20;;
58896;SDS011;44677;52.378;10.400;2022-12-13T00:50:05;29.10;;;14.10;;
58896;SDS011;44677;52.378;10.400;2022-12-13T00:52:32;25.60;;;13.80;;
58896;SDS011;44677;52.378;10.400;2022-12-13T00:54:58;32.00;;;14.00;;
58896;SDS011;44677;52.378;10.400;2022-12-13T00:57:23;30.60;;;15.40;;
58896;SDS011;44677;52.378;10.400;2022-12-13T00:59:49;29.60;;;14.60;;
58896;SDS011;44677;52.378;10.400;2022-12-13T01:02:15;33.90;;;14.70;;
58896;SDS011;44677;52.378;10.400;2022-12-13T01:04:40;27.30;;;14.30;;
58896;SDS011;44677;52.378;10.400;2022-12-13T01:07:05;27.00;;;14.90;;
58896;SDS011;44677;52.378;10.400;2022-12-13T01:09:31;27.90;;;13.70;;
58896;SDS011;44677;52.378;10.400;2022-12-13T01:11:58;27.50;;;14.70;;
58896;SDS011;44677;52.378;10.400;2022-12-13T01:16:50;28.90;;;14.30;;
58896;SDS011;44677;52.378;10.400;2022-12-13T01:19:20;27.40;;;14.50;;
58896;SDS011;44677;52.378;10.400;2022-12-13T01:21:47;26.00;;;14.10;;
58896;SDS011;44677;52.378;10.400;2022-12-13T01:24:13;27.70;;;14.70;;
58896;SDS011;44677;52.378;10.400;2022-12-13T01:26:39;31.70;;;15.30;;
58896;SDS011;44677;52.378;10.400;2022-12-13T01:29:05;30.40;;;15.30;;
58896;SDS011;44677;52.378;10.400;2022-12-13T01:31:30;24.30;;;13.50;;
58896;SDS011;44677;52.378;10.400;2022-12-13T01:33:56;28.80;;;14.40;;
58896;SDS011;44677;52.378;10.400;2022-12-13T01:36:22;30.90;;;14.20;;
58896;SDS011;44677;52.378;10.400;2022-12-13T01:38:48;26.90;;;15.00;;
58896;SDS011;44677;52.378;10.400;2022-12-13T01:41:14;25.20;;;13.20;;
58896;SDS011;44677;52.378;10.400;2022-12-13T01:46:08;24.20;;;13.00;;
58896;SDS011;44677;52.378;10.400;2022-12-13T01:48:36;26.00;;;12.80;;
58896;SDS011;44677;52.378;10.400;2022-12-13T01:51:05;23.50;;;11.40;;
58896;SDS011;44677;52.378;10.400;2022-12-13T01:53:34;30.80;;;14.10;;
58896;SDS011;44677;52.378;10.400;2022-12-13T01:58:28;20.20;;;10.40;;
58896;SDS011;44677;52.378;10.400;2022-12-13T02:00:54;27.40;;;13.20;;
58896;SDS011;44677;52.378;10.400;2022-12-13T02:03:20;28.90;;;12.50;;
58896;SDS011;44677;52.378;10.400;2022-12-13T02:05:48;21.30;;;11.60;;
58896;SDS011;44677;52.378;10.400;2022-12-13T02:08:17;31.40;;;13.40;;
58896;SDS011;44677;52.378;10.400;2022-12-13T02:10:43;25.20;;;12.50;;
58896;SDS011;44677;52.378;10.400;2022-12-13T02:13:10;26.70;;;13.80;;
58896;SDS011;44677;52.378;10.400;2022-12-13T02:15:48;16.50;;;9.40;;
58896;SDS011;44677;52.378;10.400;2022-12-13T02:24:18;31.50;;;14.70;;
58896;SDS011;44677;52.378;10.400;2022-12-13T02:27:09;28.50;;;15.10;;
58896;SDS011;44677;52.378;10.400;2022-12-13T02:32:22;28.10;;;12.80;;
58896;SDS011;44677;52.378;10.400;2022-12-13T02:35:04;27.90;;;13.60;;
58896;SDS011;44677;52.378;10.400;2022-12-13T02:37:45;24.20;;;13.00;;
58896;SDS011;44677;52.378;10.400;2022-12-13T02:40:19;29.30;;;13.80;;
58896;SDS011;44677;52.378;10.400;2022-12-13T02:42:49;28.50;;;13.60;;
58896;SDS011;44677;52.378;10.400;2022-12-13T02:45:22;27.30;;;14.10;;
58896;SDS011;44677;52.378;10.400;2022-12-13T02:47:54;32.30;;;14.60;;
58896;SDS011;44677;52.378;10.400;2022-12-13T02:50:22;25.70;;;14.50;;
58896;SDS011;44677;52.378;10.400;2022-12-13T02:52:49;23.90;;;12.80;;
58896;SDS011;44677;52.378;10.400;2022-12-13T02:55:15;22.60;;;11.90;;
58896;SDS011;44677;52.378;10.400;2022-12-13T02:57:42;24.00;;;11.50;;
58896;SDS011;44677;52.378;10.400;2022-12-13T03:00:13;24.90;;;13.40;;
58896;SDS011;44677;52.378;10.400;2022-12-13T03:09:17;24.40;;;11.60;;
58896;SDS011;44677;52.378;10.400;2022-12-13T03:12:11;22.10;;;11.80;;
58896;SDS011;44677;52.378;10.400;2022-12-13T03:18:02;20.20;;;11.50;;
58896;SDS011;44677;52.378;10.400;2022-12-13T03:20:30;20.80;;;11.30;;
58896;SDS011;44677;52.378;10.400;2022-12-13T03:22:56;21.70;;;11.20;;
58896;SDS011;44677;52.378;10.400;2022-12-13T03:25:23;25.90;;;12.40;;
58896;SDS011;44677;52.378;10.400;2022-12-13T03:27:51;25.00;;;12.90;;
58896;SDS011;44677;52.378;10.400;2022-12-13T03:30:17;23.40;;;12.10;;
58896;SDS011;44677;52.378;10.400;2022-12-13T03:32:43;22.80;;;11.90;;
58896;SDS011;44677;52.378;10.400;2022-12-13T03:35:08;30.60;;;12.40;;
58896;SDS011;44677;52.378;10.400;2022-12-13T03:37:34;22.80;;;11.20;;
58896;SDS011;44677;52.378;10.400;2022-12-13T03:39:59;19.50;;;9.70;;
58896;SDS011;44677;52.378;10.400;2022-12-13T03:42:24;21.40;;;11.50;;
58896;SDS011;44677;52.378;10.400;2022-12-13T03:44:50;24.50;;;11.20;;
58896;SDS011;44677;52.378;10.400;2022-12-13T03:47:18;18.40;;;10.90;;
58896;SDS011;44677;52.378;10.400;2022-12-13T03:49:43;23.10;;;11.20;;
58896;SDS011;44677;52.378;10.400;2022-12-13T03:52:09;18.30;;;11.30;;
58896;SDS011;44677;52.378;10.400;2022-12-13T03:54:34;23.00;;;12.00;;
58896;SDS011;44677;52.378;10.400;2022-12-13T03:57:00;21.60;;;12.50;;
58896;SDS011;44677;52.378;10.400;2022-12-13T03:59:25;23.20;;;12.00;;
58896;SDS011;44677;52.378;10.400;2022-12-13T04:01:51;20.30;;;10.80;;
58896;SDS011;44677;52.378;10.400;2022-12-13T04:04:17;20.00;;;10.80;;
58896;SDS011;44677;52.378;10.400;2022-12-13T04:06:42;21.80;;;10.50;;
58896;SDS011;44677;52.378;10.400;2022-12-13T04:09:07;22.30;;;11.00;;
58896;SDS011;44677;52.378;10.400;2022-12-13T04:11:33;22.30;;;11.70;;
58896;SDS011;44677;52.378;10.400;2022-12-13T04:14:17;17.60;;;9.00;;
58896;SDS011;44677;52.378;10.400;2022-12-13T04:16:42;19.40;;;10.00;;
58896;SDS011;44677;52.378;10.400;2022-12-13T04:19:08;21.70;;;11.40;;
58896;SDS011;44677;52.378;10.400;2022-12-13T04:21:33;23.40;;;10.80;;
58896;SDS011;44677;52.378;10.400;2022-12-13T04:23:59;18.70;;;9.80;;
58896;SDS011;44677;52.378;10.400;2022-12-13T04:26:24;17.20;;;8.80;;
58896;SDS011;44677;52.378;10.400;2022-12-13T04:28:50;16.80;;;8.40;;
58896;SDS011;44677;52.378;10.400;2022-12-13T04:31:15;22.80;;;10.70;;
58896;SDS011;44677;52.378;10.400;2022-12-13T04:33:41;16.10;;;8.80;;
58896;SDS011;44677;52.378;10.400;2022-12-13T04:36:06;17.40;;;10.00;;
58896;SDS011;44677;52.378;10.400;2022-12-13T04:38:32;19.10;;;9.40;;
58896;SDS011;44677;52.378;10.400;2022-12-13T04:41:04;19.10;;;10.70;;
58896;SDS011;44677;52.378;10.400;2022-12-13T04:43:31;17.60;;;8.90;;
58896;SDS011;44677;52.378;10.400;2022-12-13T04:45:56;20.80;;;10.20;;
58896;SDS011;44677;52.378;10.400;2022-12-13T04:48:22;18.90;;;10.40;;
58896;SDS011;44677;52.378;10.400;2022-12-13T04:50:48;23.50;;;10.60;;
58896;SDS011;44677;52.378;10.400;2022-12-13T04:53:13;22.20;;;11.40;;
58896;SDS011;44677;52.378;10.400;2022-12-13T04:55:40;22.00;;;10.60;;
58896;SDS011;44677;52.378;10.400;2022-12-13T04:58:05;17.80;;;9.90;;
58896;SDS011;44677;52.378;10.400;2022-12-13T05:00:31;19.80;;;10.80;;
58896;SDS011;44677;52.378;10.400;2022-12-13T05:02:57;22.00;;;10.50;;
58896;SDS011;44677;52.378;10.400;2022-12-13T05:05:22;22.30;;;11.20;;
58896;SDS011;44677;52.378;10.400;2022-12-13T05:07:47;23.30;;;11.50;;
58896;SDS011;44677;52.378;10.400;2022-12-13T05:10:13;19.90;;;9.80;;
58896;SDS011;44677;52.378;10.400;2022-12-13T05:12:38;19.10;;;10.40;;
58896;SDS011;44677;52.378;10.400;2022-12-13T05:15:04;20.70;;;10.40;;
58896;SDS011;44677;52.378;10.400;2022-12-13T05:17:29;19.30;;;11.30;;
58896;SDS011;44677;52.378;10.400;2022-12-13T05:19:55;15.20;;;8.10;;
58896;SDS011;44677;52.378;10.400;2022-12-13T05:22:21;17.80;;;8.20;;
58896;SDS011;44677;52.378;10.400;2022-12-13T05:24:46;21.70;;;10.20;;
58896;SDS011;44677;52.378;10.400;2022-12-13T05:27:12;14.40;;;8.70;;
58896;SDS011;44677;52.378;10.400;2022-12-13T05:29:38;18.30;;;9.80;;
58896;SDS011;44677;52.378;10.400;2022-12-13T05:32:03;17.60;;;9.90;;
58896;SDS011;44677;52.378;10.400;2022-12-13T05:34:29;17.70;;;10.50;;
58896;SDS011;44677;52.378;10.400;2022-12-13T05:36:54;19.60;;;11.10;;
58896;SDS011;44677;52.378;10.400;2022-12-13T05:39:20;18.60;;;10.00;;
58896;SDS011;44677;52.378;10.400;2022-12-13T05:41:45;17.60;;;9.40;;
58896;SDS011;44677;52.378;10.400;2022-12-13T05:44:11;21.30;;;10.40;;
58896;SDS011;44677;52.378;10.400;2022-12-13T05:46:37;20.00;;;10.70;;
58896;SDS011;44677;52.378;10.400;2022-12-13T05:49:03;19.00;;;11.90;;
58896;SDS011;44677;52.378;10.400;2022-12-13T05:51:28;21.60;;;11.70;;
58896;SDS011;44677;52.378;10.400;2022-12-13T05:53:54;21.50;;;11.00;;
58896;SDS011;44677;52.378;10.400;2022-12-13T05:56:19;20.30;;;10.90;;
58896;SDS011;44677;52.378;10.400;2022-12-13T05:58:45;20.70;;;11.20;;
58896;SDS011;44677;52.378;10.400;2022-12-13T06:01:11;24.80;;;12.70;;
58896;SDS011;44677;52.378;10.400;2022-12-13T06:03:38;19.60;;;11.30;;
58896;SDS011;44677;52.378;10.400;2022-12-13T06:06:04;22.40;;;11.00;;
58896;SDS011;44677;52.378;10.400;2022-12-13T06:08:30;20.50;;;11.90;;
58896;SDS011;44677;52.378;10.400;2022-12-13T06:10:56;27.30;;;12.10;;
58896;SDS011;44677;52.378;10.400;2022-12-13T06:13:23;16.70;;;9.40;;
58896;SDS011;44677;52.378;10.400;2022-12-13T06:15:49;24.40;;;11.10;;
58896;SDS011;44677;52.378;10.400;2022-12-13T06:18:15;17.10;;;10.60;;
58896;SDS011;44677;52.378;10.400;2022-12-13T06:20:40;21.70;;;10.20;;
58896;SDS011;44677;52.378;10.400;2022-12-13T06:23:06;18.10;;;9.20;;
58896;SDS011;44677;52.378;10.400;2022-12-13T06:25:31;20.40;;;9.90;;
58896;SDS011;44677;52.378;10.400;2022-12-13T06:27:56;19.00;;;9.70;;
58896;SDS011;44677;52.378;10.400;2022-12-13T06:30:22;23.00;;;10.90;;
58896;SDS011;44677;52.378;10.400;2022-12-13T06:32:48;19.10;;;9.60;;
58896;SDS011;44677;52.378;10.400;2022-12-13T06:35:14;12.80;;;8.60;;
58896;SDS011;44677;52.378;10.400;2022-12-13T06:37:40;15.60;;;8.60;;
58896;SDS011;44677;52.378;10.400;2022-12-13T06:40:05;23.30;;;10.70;;
58896;SDS011;44677;52.378;10.400;2022-12-13T06:42:31;19.60;;;8.40;;
58896;SDS011;44677;52.378;10.400;2022-12-13T06:44:57;17.50;;;9.30;;
58896;SDS011;44677;52.378;10.400;2022-12-13T06:47:23;16.50;;;9.10;;
58896;SDS011;44677;52.378;10.400;2022-12-13T06:52:15;13.60;;;8.10;;
58896;SDS011;44677;52.378;10.400;2022-12-13T06:54:41;15.50;;;8.20;;
58896;SDS011;44677;52.378;10.400;2022-12-13T06:57:07;16.60;;;7.80;;
58896;SDS011;44677;52.378;10.400;2022-12-13T06:59:33;16.50;;;8.50;;
58896;SDS011;44677;52.378;10.400;2022-12-13T07:01:58;14.90;;;8.20;;
58896;SDS011;44677;52.378;10.400;2022-12-13T07:04:23;13.20;;;8.00;;
58896;SDS011;44677;52.378;10.400;2022-12-13T07:06:49;12.80;;;7.20;;
58896;SDS011;44677;52.378;10.400;2022-12-13T07:09:14;12.20;;;7.90;;
58896;SDS011;44677;52.378;10.400;2022-12-13T07:11:40;14.10;;;8.50;;
58896;SDS011;44677;52.378;10.400;2022-12-13T07:14:05;17.80;;;9.40;;
58896;SDS011;44677;52.378;10.400;2022-12-13T07:16:30;19.20;;;9.30;;
58896;SDS011;44677;52.378;10.400;2022-12-13T07:18:57;17.40;;;8.80;;
58896;SDS011;44677;52.378;10.400;2022-12-13T07:21:23;16.40;;;8.20;;
58896;SDS011;44677;52.378;10.400;2022-12-13T07:23:49;18.30;;;9.40;;
58896;SDS011;44677;52.378;10.400;2022-12-13T07:26:15;13.40;;;8.80;;
58896;SDS011;44677;52.378;10.400;2022-12-13T07:28:40;16.20;;;8.00;;
58896;SDS011;44677;52.378;10.400;2022-12-13T07:31:06;12.80;;;8.50;;
58896;SDS011;44677;52.378;10.400;2022-12-13T07:33:32;16.60;;;8.70;;
58896;SDS011;44677;52.378;10.400;2022-12-13T07:36:02;13.70;;;7.60;;
58896;SDS011;44677;52.378;10.400;2022-12-13T07:38:34;16.30;;;8.30;;
58896;SDS011;44677;52.378;10.400;2022-12-13T07:41:00;17.60;;;8.80;;
58896;SDS011;44677;52.378;10.400;2022-12-13T07:43:27;17.20;;;9.50;;
58896;SDS011;44677;52.378;10.400;2022-12-13T07:45:56;15.90;;;7.80;;
58896;SDS011;44677;52.378;10.400;2022-12-13T07:48:23;17.20;;;8.50;;
58896;SDS011;44677;52.378;10.400;2022-12-13T07:50:48;15.90;;;8.30;;
58896;SDS011;44677;52.378;10.400;2022-12-13T07:53:14;14.70;;;8.90;;
58896;SDS011;44677;52.378;10.400;2022-12-13T07:55:39;16.00;;;9.20;;
58896;SDS011;44677;52.378;10.400;2022-12-13T07:58:05;18.40;;;9.80;;
58896;SDS011;44677;52.378;10.400;2022-12-13T08:00:33;19.00;;;9.40;;
58896;SDS011;44677;52.378;10.400;2022-12-13T08:02:59;16.70;;;8.70;;
58896;SDS011;44677;52.378;10.400;2022-12-13T08:05:26;18.20;;;9.80;;
58896;SDS011;44677;52.378;10.400;2022-12-13T08:07:52;17.20;;;9.40;;
58896;SDS011;44677;52.378;10.400;2022-12-13T08:10:18;19.40;;;9.50;;
58896;SDS011;44677;52.378;10.400;2022-12-13T08:12:43;14.30;;;8.50;;
58896;SDS011;44677;52.378;10.400;2022-12-13T08:15:09;16.00;;;7.60;;
58896;SDS011;44677;52.378;10.400;2022-12-13T08:17:34;15.20;;;8.20;;
58896;SDS011;44677;52.378;10.400;2022-12-13T08:19:59;11.80;;;6.20;;
58896;SDS011;44677;52.378;10.400;2022-12-13T08:22:25;16.70;;;9.10;;
58896;SDS011;44677;52.378;10.400;2022-12-13T08:24:50;15.60;;;8.40;;
58896;SDS011;44677;52.378;10.400;2022-12-13T08:27:16;14.30;;;8.50;;
58896;SDS011;44677;52.378;10.400;2022-12-13T08:29:41;14.30;;;8.30;;
58896;SDS011;44677;52.378;10.400;2022-12-13T08:32:08;17.20;;;9.20;;
58896;SDS011;44677;52.378;10.400;2022-12-13T08:34:35;15.60;;;7.80;;
58896;SDS011;44677;52.378;10.400;2022-12-13T08:37:00;17.10;;;8.30;;
58896;SDS011;44677;52.378;10.400;2022-12-13T08:39:26;18.70;;;10.20;;
58896;SDS011;44677;52.378;10.400;2022-12-13T08:41:52;18.60;;;9.10;;
58896;SDS011;44677;52.378;10.400;2022-12-13T08:44:17;20.70;;;9.60;;
58896;SDS011;44677;52.378;10.400;2022-12-13T08:46:42;16.40;;;8.80;;
58896;SDS011;44677;52.378;10.400;2022-12-13T08:49:09;17.10;;;8.70;;
58896;SDS011;44677;52.378;10.400;2022-12-13T08:54:00;21.30;;;9.00;;
58896;SDS011;44677;52.378;10.400;2022-12-13T08:56:26;17.30;;;9.00;;
58896;SDS011;44677;52.378;10.400;2022-12-13T08:58:51;14.20;;;8.00;;
58896;SDS011;44677;52.378;10.400;2022-12-13T09:01:17;15.00;;;8.50;;
58896;SDS011;44677;52.378;10.400;2022-12-13T09:03:42;22.10;;;9.60;;
58896;SDS011;44677;52.378;10.400;2022-12-13T09:06:12;25.60;;;9.30;;
58896;SDS011;44677;52.378;10.400;2022-12-13T09:08:39;14.50;;;8.70;;
58896;SDS011;44677;52.378;10.400;2022-12-13T09:11:05;20.70;;;9.30;;
58896;SDS011;44677;52.378;10.400;2022-12-13T09:13:32;15.30;;;8.90;;
58896;SDS011;44677;52.378;10.400;2022-12-13T09:18:38;21.50;;;11.50;;
58896;SDS011;44677;52.378;10.400;2022-12-13T09:21:07;21.70;;;11.90;;
58896;SDS011;44677;52.378;10.400;2022-12-13T09:23:33;21.00;;;12.10;;
58896;SDS011;44677;52.378;10.400;2022-12-13T09:26:00;18.70;;;11.00;;
58896;SDS011;44677;52.378;10.400;2022-12-13T09:28:26;21.40;;;12.80;;
58896;SDS011;44677;52.378;10.400;2022-12-13T09:30:52;17.80;;;9.60;;
58896;SDS011;44677;52.378;10.400;2022-12-13T09:33:17;17.70;;;9.10;;
58896;SDS011;44677;52.378;10.400;2022-12-13T09:35:43;16.60;;;9.30;;
58896;SDS011;44677;52.378;10.400;2022-12-13T09:38:09;16.20;;;8.60;;
58896;SDS011;44677;52.378;10.400;2022-12-13T09:40:35;17.20;;;9.10;;
58896;SDS011;44677;52.378;10.400;2022-12-13T09:43:02;18.10;;;9.80;;
58896;SDS011;44677;52.378;10.400;2022-12-13T09:45:28;15.70;;;8.70;;
58896;SDS011;44677;52.378;10.400;2022-12-13T09:47:54;15.50;;;8.90;;
58896;SDS011;44677;52.378;10.400;2022-12-13T09:50:25;17.20;;;8.90;;
58896;SDS011;44677;52.378;10.400;2022-12-13T09:52:52;13.00;;;8.40;;
58896;SDS011;44677;52.378;10.400;2022-12-13T09:55:24;15.40;;;8.20;;
58896;SDS011;44677;52.378;10.400;2022-12-13T09:57:53;14.70;;;8.90;;
58896;SDS011;44677;52.378;10.400;2022-12-13T10:00:20;17.90;;;9.90;;
58896;SDS011;44677;52.378;10.400;2022-12-13T10:02:48;22.80;;;12.60;;
58896;SDS011;44677;52.378;10.400;2022-12-13T10:05:18;22.80;;;11.50;;
58896;SDS011;44677;52.378;10.400;2022-12-13T10:07:46;23.80;;;12.70;;
58896;SDS011;44677;52.378;10.400;2022-12-13T10:10:12;20.90;;;11.80;;
58896;SDS011;44677;52.378;10.400;2022-12-13T10:12:38;29.10;;;15.40;;
58896;SDS011;44677;52.378;10.400;2022-12-13T10:15:06;17.60;;;10.40;;
58896;SDS011;44677;52.378;10.400;2022-12-13T10:17:35;13.40;;;9.50;;
58896;SDS011;44677;52.378;10.400;2022-12-13T10:20:02;15.90;;;9.70;;
58896;SDS011;44677;52.378;10.400;2022-12-13T10:22:29;17.00;;;9.20;;
58896;SDS011;44677;52.378;10.400;2022-12-13T10:25:02;15.00;;;8.10;;
58896;SDS011;44677;52.378;10.400;2022-12-13T10:27:33;12.80;;;7.90;;
58896;SDS011;44677;52.378;10.400;2022-12-13T10:30:04;15.60;;;9.70;;
58896;SDS011;44677;52.378;10.400;2022-12-13T10:32:53;14.60;;;7.90;;
58896;SDS011;44677;52.378;10.400;2022-12-13T10:35:31;15.50;;;7.80;;
58896;SDS011;44677;52.378;10.400;2022-12-13T10:38:42;17.60;;;9.80;;
58896;SDS011;44677;52.378;10.400;2022-12-13T10:40:51;18.50;;;10.40;;
58896;SDS011;44677;52.378;10.400;2022-12-13T10:50:58;15.40;;;9.10;;
58896;SDS011;44677;52.378;10.400;2022-12-13T10:53:33;15.70;;;9.80;;
58896;SDS011;44677;52.378;10.400;2022-12-13T10:56:00;14.70;;;9.20;;
58896;SDS011;44677;52.378;10.400;2022-12-13T10:58:34;17.40;;;10.30;;
58896;SDS011;44677;52.378;10.400;2022-12-13T11:01:07;17.00;;;9.80;;
58896;SDS011;44677;52.378;10.400;2022-12-13T11:06:24;17.90;;;10.00;;
58896;SDS011;44677;52.378;10.400;2022-12-13T11:08:51;16.70;;;9.30;;
58896;SDS011;44677;52.378;10.400;2022-12-13T11:11:18;16.40;;;9.60;;
58896;SDS011;44677;52.378;10.400;2022-12-13T11:13:53;16.80;;;10.50;;
58896;SDS011;44677;52.378;10.400;2022-12-13T11:16:33;17.40;;;9.70;;
58896;SDS011;44677;52.378;10.400;2022-12-13T11:19:25;18.90;;;10.20;;
58896;SDS011;44677;52.378;10.400;2022-12-13T11:22:09;18.10;;;9.60;;
58896;SDS011;44677;52.378;10.400;2022-12-13T11:24:59;14.00;;;9.60;;
58896;SDS011;44677;52.378;10.400;2022-12-13T11:27:40;16.00;;;9.70;;
58896;SDS011;44677;52.378;10.400;2022-12-13T11:30:32;16.30;;;9.60;;
58896;SDS011;44677;52.378;10.400;2022-12-13T11:33:11;17.40;;;10.50;;
58896;SDS011;44677;52.378;10.400;2022-12-13T11:39:18;13.80;;;9.20;;
58896;SDS011;44677;52.378;10.400;2022-12-13T11:44:11;19.10;;;10.00;;
58896;SDS011;44677;52.378;10.400;2022-12-13T11:46:41;15.90;;;9.60;;
58896;SDS011;44677;52.378;10.400;2022-12-13T11:49:43;15.50;;;10.00;;
58896;SDS011;44677;52.378;10.400;2022-12-13T11:52:10;17.50;;;10.50;;
58896;SDS011;44677;52.378;10.400;2022-12-13T11:54:57;17.90;;;9.10;;
58896;SDS011;44677;52.378;10.400;2022-12-13T11:57:29;14.40;;;9.50;;
58896;SDS011;44677;52.378;10.400;2022-12-13T12:00:05;14.70;;;9.70;;
58896;SDS011;44677;52.378;10.400;2022-12-13T12:02:52;17.80;;;10.70;;
58896;SDS011;44677;52.378;10.400;2022-12-13T12:05:35;16.20;;;9.80;;
58896;SDS011;44677;52.378;10.400;2022-12-13T12:10:40;15.70;;;10.30;;
58896;SDS011;44677;52.378;10.400;2022-12-13T12:13:22;16.80;;;10.40;;
58896;SDS011;44677;52.378;10.400;2022-12-13T12:18:34;17.70;;;9.80;;
58896;SDS011;44677;52.378;10.400;2022-12-13T12:21:11;15.60;;;10.20;;
58896;SDS011;44677;52.378;10.400;2022-12-13T12:26:44;17.10;;;10.10;;
58896;SDS011;44677;52.378;10.400;2022-12-13T12:32:07;16.60;;;10.10;;
58896;SDS011;44677;52.378;10.400;2022-12-13T12:34:52;17.80;;;10.30;;
58896;SDS011;44677;52.378;10.400;2022-12-13T12:37:43;17.90;;;9.70;;
58896;SDS011;44677;52.378;10.400;2022-12-13T12:43:10;16.00;;;9.30;;
58896;SDS011;44677;52.378;10.400;2022-12-13T12:46:20;16.90;;;10.10;;
58896;SDS011;44677;52.378;10.400;2022-12-13T12:51:17;14.20;;;9.80;;
58896;SDS011;44677;52.378;10.400;2022-12-13T12:53:51;16.30;;;9.50;;
58896;SDS011;44677;52.378;10.400;2022-12-13T12:59:29;15.10;;;9.80;;
58896;SDS011;44677;52.378;10.400;2022-12-13T13:02:22;19.00;;;10.80;;
58896;SDS011;44677;52.378;10.400;2022-12-13T13:04:54;17.90;;;10.00;;
58896;SDS011;44677;52.378;10.400;2022-12-13T13:07:27;15.70;;;10.00;;
58896;SDS011;44677;52.378;10.400;2022-12-13T13:09:56;15.40;;;10.80;;
58896;SDS011;44677;52.378;10.400;2022-12-13T13:12:24;14.60;;;9.90;;
58896;SDS011;44677;52.378;10.400;2022-12-13T13:14:50;16.10;;;10.10;;
58896;SDS011;44677;52.378;10.400;2022-12-13T13:22:29;19.10;;;12.60;;
58896;SDS011;44677;52.378;10.400;2022-12-13T13:25:12;18.30;;;11.00;;
58896;SDS011;44677;52.378;10.400;2022-12-13T13:27:44;18.30;;;10.30;;
58896;SDS011;44677;52.378;10.400;2022-12-13T13:30:20;19.10;;;11.00;;
58896;SDS011;44677;52.378;10.400;2022-12-13T13:32:48;16.00;;;11.10;;
58896;SDS011;44677;52.378;10.400;2022-12-13T13:37:56;17.10;;;10.70;;
58896;SDS011;44677;52.378;10.400;2022-12-13T13:40:26;17.10;;;11.20;;
58896;SDS011;44677;52.378;10.400;2022-12-13T13:45:51;16.80;;;10.50;;
58896;SDS011;44677;52.378;10.400;2022-12-13T13:48:37;16.80;;;11.20;;
58896;SDS011;44677;52.378;10.400;2022-12-13T14:23:50;17.70;;;10.80;;
58896;SDS011;44677;52.378;10.400;2022-12-13T14:26:27;20.60;;;11.70;;
58896;SDS011;44677;52.378;10.400;2022-12-13T14:28:59;18.50;;;11.40;;
58896;SDS011;44677;52.378;10.400;2022-12-13T14:31:41;17.00;;;10.50;;
58896;SDS011;44677;52.378;10.400;2022-12-13T14:34:42;17.30;;;10.50;;
58896;SDS011;44677;52.378;10.400;2022-12-13T14:37:01;17.40;;;11.20;;
58896;SDS011;44677;52.378;10.400;2022-12-13T14:39:29;19.70;;;11.70;;
58896;SDS011;44677;52.378;10.400;2022-12-13T14:41:56;16.90;;;8.90;;
58896;SDS011;44677;52.378;10.400;2022-12-13T14:44:24;15.80;;;9.00;;
58896;SDS011;44677;52.378;10.400;2022-12-13T14:46:51;16.10;;;10.70;;
58896;SDS011;44677;52.378;10.400;2022-12-13T14:49:21;16.20;;;10.30;;
58896;SDS011;44677;52.378;10.400;2022-12-13T14:51:48;18.00;;;10.90;;
58896;SDS011;44677;52.378;10.400;2022-12-13T14:54:20;15.10;;;9.70;;
58896;SDS011;44677;52.378;10.400;2022-12-13T14:56:55;16.20;;;10.50;;
58896;SDS011;44677;52.378;10.400;2022-12-13T14:59:23;20.60;;;10.80;;
58896;SDS011;44677;52.378;10.400;2022-12-13T15:01:53;20.90;;;10.90;;
58896;SDS011;44677;52.378;10.400;2022-12-13T15:06:54;15.20;;;9.50;;
58896;SDS011;44677;52.378;10.400;2022-12-13T15:09:25;18.30;;;10.80;;
58896;SDS011;44677;52.378;10.400;2022-12-13T15:11:52;18.00;;;10.60;;
58896;SDS011;44677;52.378;10.400;2022-12-13T15:14:18;17.40;;;10.40;;
58896;SDS011;44677;52.378;10.400;2022-12-13T15:16:54;19.80;;;11.20;;
58896;SDS011;44677;52.378;10.400;2022-12-13T15:19:24;19.70;;;12.00;;
58896;SDS011;44677;52.378;10.400;2022-12-13T15:22:02;20.90;;;11.70;;
58896;SDS011;44677;52.378;10.400;2022-12-13T15:24:35;21.20;;;12.30;;
58896;SDS011;44677;52.378;10.400;2022-12-13T15:27:14;19.20;;;11.20;;
58896;SDS011;44677;52.378;10.400;2022-12-13T15:29:41;17.10;;;11.50;;
58896;SDS011;44677;52.378;10.400;2022-12-13T15:32:10;18.60;;;10.60;;
58896;SDS011;44677;52.378;10.400;2022-12-13T15:34:36;19.00;;;10.90;;
58896;SDS011;44677;52.378;10.400;2022-12-13T15:37:13;20.90;;;10.90;;
58896;SDS011;44677;52.378;10.400;2022-12-13T15:39:42;19.50;;;12.40;;
58896;SDS011;44677;52.378;10.400;2022-12-13T15:42:14;29.80;;;18.60;;
58896;SDS011;44677;52.378;10.400;2022-12-13T15:45:03;32.10;;;17.40;;
58896;SDS011;44677;52.378;10.400;2022-12-13T15:47:33;44.90;;;23.90;;
58896;SDS011;44677;52.378;10.400;2022-12-13T15:50:03;47.20;;;24.60;;
58896;SDS011;44677;52.378;10.400;2022-12-13T15:52:34;75.50;;;37.20;;
58896;SDS011;44677;52.378;10.400;2022-12-13T15:55:21;136.00;;;63.10;;
58896;SDS011;44677;52.378;10.400;2022-12-13T15:57:49;58.40;;;34.10;;
58896;SDS011;44677;52.378;10.400;2022-12-13T16:00:20;49.80;;;28.10;;
58896;SDS011;44677;52.378;10.400;2022-12-13T16:05:52;31.40;;;19.60;;
58896;SDS011;44677;52.378;10.400;2022-12-13T16:08:32;28.20;;;17.30;;
58896;SDS011;44677;52.378;10.400;2022-12-13T16:10:59;41.60;;;24.20;;
58896;SDS011;44677;52.378;10.400;2022-12-13T16:13:35;40.20;;;23.90;;
58896;SDS011;44677;52.378;10.400;2022-12-13T16:21:36;24.90;;;14.10;;
58896;SDS011;44677;52.378;10.400;2022-12-13T16:24:02;30.50;;;15.90;;
58896;SDS011;44677;52.378;10.400;2022-12-13T16:26:27;28.10;;;14.30;;
58896;SDS011;44677;52.378;10.400;2022-12-13T16:28:53;23.80;;;13.70;;
58896;SDS011;44677;52.378;10.400;2022-12-13T16:31:22;26.40;;;15.10;;